createdAt,value
2023-01-18T00:01:03.126Z,79.45
2023-01-18T00:03:54.008Z,68.03
2023-01-18T00:06:41.395Z,51.63
2023-01-18T00:09:28.434Z,40.70
2023-01-18T00:12:18.952Z,37.58
2023-01-18T00:15:09.669Z,60.30
2023-01-18T00:17:57.087Z,55.65
2023-01-18T00:20:44.130Z,44.75
2023-01-18T00:23:32.374Z,38.25
2023-01-18T00:26:20.920Z,38.10
2023-01-18T00:29:11.208Z,36.70
2023-01-18T00:32:00.553Z,42.63
2023-01-18T00:34:50.589Z,49.53
2023-01-18T00:37:37.897Z,54.30
2023-01-18T00:40:28.820Z,53.88
2023-01-18T00:43:34.422Z,64.68
2023-01-18T00:46:27.404Z,59.92
2023-01-18T00:49:14.516Z,64.32
2023-01-18T00:52:01.565Z,61.50
2023-01-18T00:54:48.683Z,57.08
2023-01-18T00:57:35.724Z,61.17
2023-01-18T01:00:27.009Z,62.47
2023-01-18T01:03:17.320Z,65.50
2023-01-18T01:06:22.909Z,59.83
2023-01-18T01:09:12.687Z,68.82
2023-01-18T01:12:22.236Z,68.18
2023-01-18T01:15:29.063Z,68.47
2023-01-18T01:18:36.235Z,66.28
2023-01-18T01:21:41.638Z,67.68
2023-01-18T01:24:47.299Z,66.25
2023-01-18T01:27:34.383Z,71.30
2023-01-18T01:30:21.490Z,75.20
2023-01-18T01:33:10.643Z,74.85
2023-01-18T01:36:06.608Z,76.32
2023-01-18T01:38:54.935Z,80.13
2023-01-18T01:41:42.218Z,78.90
2023-01-18T01:44:35.051Z,85.68
2023-01-18T01:47:40.537Z,71.18
2023-01-18T01:50:41.926Z,69.20
2023-01-18T01:53:29.136Z,76.43
2023-01-18T01:56:20.288Z,63.53
2023-01-18T01:59:08.822Z,61.92
2023-01-18T02:01:56.058Z,60.80
2023-01-18T02:04:45.280Z,52.08
2023-01-18T02:07:33.241Z,53.15
2023-01-18T02:10:22.920Z,50.30
2023-01-18T02:13:13.337Z,55.70
2023-01-18T02:16:35.399Z,53.95
2023-01-18T02:19:47.821Z,49.35
2023-01-18T02:23:12.572Z,54.67
2023-01-18T02:26:12.674Z,55.58
2023-01-18T02:29:29.121Z,52.22
2023-01-18T02:32:49.482Z,54.00
2023-01-18T02:35:46.464Z,48.33
2023-01-18T02:38:44.574Z,45.88
2023-01-18T02:42:02.914Z,46.15
2023-01-18T02:45:09.959Z,53.85
2023-01-18T02:47:57.295Z,46.25
2023-01-18T02:50:46.821Z,44.95
2023-01-18T02:53:40.287Z,44.33
2023-01-18T02:56:53.999Z,41.28
2023-01-18T02:59:55.644Z,47.35
2023-01-18T03:02:43.901Z,39.50
2023-01-18T03:05:34.468Z,38.72
2023-01-18T03:08:40.526Z,38.75
2023-01-18T03:11:33.573Z,48.58
2023-01-18T03:14:31.740Z,43.33
2023-01-18T03:17:26.629Z,45.53
2023-01-18T03:20:19.265Z,35.38
2023-01-18T03:26:20.288Z,35.35
2023-01-18T03:29:26.397Z,34.67
2023-01-18T03:32:35.783Z,36.63
2023-01-18T03:35:28.406Z,35.03
2023-01-18T03:41:08.671Z,37.08
2023-01-18T03:44:00.046Z,38.25
2023-01-18T03:46:47.448Z,42.80
2023-01-18T03:49:35.209Z,34.67
2023-01-18T03:52:28.814Z,34.88
2023-01-18T03:55:49.008Z,28.75
2023-01-18T03:58:37.124Z,31.98
2023-01-18T04:01:25.905Z,28.27
2023-01-18T04:04:12.980Z,29.67
2023-01-18T04:07:00.237Z,33.25
2023-01-18T04:09:50.057Z,30.52
2023-01-18T04:12:39.818Z,29.90
2023-01-18T04:15:32.779Z,30.95
2023-01-18T04:18:20.170Z,29.65
2023-01-18T04:21:10.318Z,35.58
2023-01-18T04:23:59.885Z,36.75
2023-01-18T04:26:47.310Z,37.45
2023-01-18T04:29:36.916Z,34.65
2023-01-18T04:32:26.257Z,27.63
2023-01-18T04:35:13.989Z,27.63
2023-01-18T04:38:01.100Z,30.98
2023-01-18T04:40:51.937Z,23.55
2023-01-18T04:43:39.028Z,23.83
2023-01-18T04:46:28.374Z,27.60
2023-01-18T04:49:17.607Z,27.33
2023-01-18T04:52:07.883Z,29.17
2023-01-18T04:54:55.403Z,26.60
2023-01-18T04:57:43.924Z,29.45
2023-01-18T05:00:31.106Z,29.90
2023-01-18T05:03:47.059Z,27.27
2023-01-18T05:06:37.245Z,28.58
2023-01-18T05:09:25.492Z,24.40
2023-01-18T05:12:12.651Z,26.55
2023-01-18T05:14:59.779Z,27.50
2023-01-18T05:17:47.088Z,24.88
2023-01-18T05:20:34.243Z,22.33
2023-01-18T05:23:29.307Z,27.00
2023-01-18T05:26:21.520Z,22.65
2023-01-18T05:29:09.568Z,24.33
2023-01-18T05:32:00.561Z,17.77
2023-01-18T05:34:51.818Z,21.20
2023-01-18T05:37:40.076Z,20.85
2023-01-18T05:40:27.634Z,21.95
2023-01-18T05:43:16.946Z,22.25
2023-01-18T05:46:05.391Z,20.55
2023-01-18T05:48:58.433Z,24.40
2023-01-18T05:51:45.594Z,23.88
2023-01-18T05:54:38.269Z,25.75
2023-01-18T06:00:12.897Z,20.77
2023-01-18T06:03:03.289Z,18.38
2023-01-18T06:05:53.330Z,19.88
2023-01-18T06:08:42.208Z,16.73
2023-01-18T06:11:29.418Z,18.10
2023-01-18T06:14:16.624Z,19.85
2023-01-18T06:17:05.077Z,20.42
2023-01-18T06:19:52.274Z,22.50
2023-01-18T06:22:40.999Z,17.95
2023-01-18T06:25:28.145Z,16.25
2023-01-18T06:28:15.541Z,20.70
2023-01-18T06:31:11.648Z,19.15
2023-01-18T06:34:09.158Z,19.77
2023-01-18T06:36:56.395Z,21.58
2023-01-18T06:39:43.505Z,18.33
2023-01-18T06:42:30.635Z,20.73
2023-01-18T06:45:22.012Z,18.88
2023-01-18T06:48:39.167Z,21.95
2023-01-18T06:51:28.419Z,22.45
2023-01-18T06:54:22.143Z,26.60
2023-01-18T06:57:12.275Z,25.50
2023-01-18T07:00:06.350Z,30.48
2023-01-18T07:02:53.538Z,30.17
2023-01-18T07:05:46.513Z,28.60
2023-01-18T07:08:34.733Z,28.27
2023-01-18T07:11:25.676Z,29.52
2023-01-18T07:14:15.782Z,33.35
2023-01-18T07:17:06.257Z,29.88
2023-01-18T07:19:54.206Z,32.45
2023-01-18T07:22:41.592Z,33.30
2023-01-18T07:25:29.585Z,30.88
2023-01-18T07:28:18.852Z,31.05
2023-01-18T07:31:08.087Z,30.90
2023-01-18T07:33:57.787Z,30.15
2023-01-18T07:36:44.976Z,27.20
2023-01-18T07:39:32.087Z,30.55
2023-01-18T07:42:21.291Z,27.48
2023-01-18T07:45:09.509Z,26.05
2023-01-18T07:48:01.697Z,28.40
2023-01-18T07:51:18.525Z,26.90
2023-01-18T07:57:39.188Z,20.80
2023-01-18T08:00:29.307Z,22.30
2023-01-18T08:03:23.554Z,24.25
2023-01-18T08:06:25.130Z,20.25
2023-01-18T08:09:15.088Z,20.73
2023-01-18T08:12:16.744Z,19.70
2023-01-18T08:15:04.743Z,17.05
2023-01-18T08:17:52.484Z,19.63
2023-01-18T08:20:44.791Z,20.92
2023-01-18T08:23:31.958Z,14.60
2023-01-18T08:26:19.221Z,14.57
2023-01-18T08:29:06.599Z,12.73
2023-01-18T08:31:56.685Z,15.43
2023-01-18T08:34:44.065Z,17.95
2023-01-18T08:37:31.496Z,16.20
2023-01-18T08:40:20.799Z,13.13
2023-01-18T08:43:09.433Z,14.10
2023-01-18T08:45:56.572Z,16.90
2023-01-18T08:48:48.445Z,16.10
2023-01-18T08:51:37.537Z,11.88
2023-01-18T08:54:29.608Z,20.45
2023-01-18T08:57:17.161Z,14.07
2023-01-18T09:00:04.929Z,12.98
2023-01-18T09:02:52.548Z,12.85
2023-01-18T09:05:40.303Z,17.05
2023-01-18T09:08:28.783Z,10.50
2023-01-18T09:11:17.158Z,11.48
2023-01-18T09:14:05.969Z,11.07
2023-01-18T09:16:56.356Z,11.88
2023-01-18T09:19:44.362Z,12.40
2023-01-18T09:22:32.806Z,12.13
2023-01-18T09:25:22.239Z,10.13
2023-01-18T09:28:09.701Z,11.27
2023-01-18T09:31:06.488Z,12.00
2023-01-18T09:34:19.019Z,11.77
2023-01-18T09:37:07.239Z,11.15
2023-01-18T09:40:00.409Z,7.82
2023-01-18T09:42:51.819Z,8.20
2023-01-18T09:45:44.575Z,7.88
2023-01-18T09:51:30.589Z,7.20
2023-01-18T09:54:48.268Z,9.02
2023-01-18T09:57:53.055Z,10.82
2023-01-18T10:00:46.042Z,7.10
2023-01-18T10:03:47.039Z,8.38
2023-01-18T10:06:59.958Z,10.70
2023-01-18T10:09:58.835Z,6.80
2023-01-18T10:13:05.464Z,10.45
2023-01-18T10:15:53.079Z,11.20
2023-01-18T10:18:48.681Z,12.60
2023-01-18T10:22:14.743Z,11.68
2023-01-18T10:25:07.236Z,13.30
2023-01-18T10:28:25.417Z,15.35
2023-01-18T10:31:35.204Z,18.85
2023-01-18T10:34:32.879Z,10.45
2023-01-18T10:37:45.421Z,12.20
2023-01-18T10:40:37.702Z,10.98
2023-01-18T10:43:26.729Z,11.05
2023-01-18T10:46:16.848Z,12.85
2023-01-18T10:49:04.462Z,11.77
2023-01-18T10:51:51.708Z,10.75
2023-01-18T10:54:48.823Z,15.23
2023-01-18T10:57:58.059Z,10.15
2023-01-18T11:00:54.473Z,11.93
2023-01-18T11:03:55.546Z,16.10
2023-01-18T11:06:59.343Z,12.88
2023-01-18T11:09:56.863Z,8.82
2023-01-18T11:12:47.918Z,10.93
2023-01-18T11:15:35.362Z,13.52
2023-01-18T11:18:26.006Z,12.02
2023-01-18T11:21:17.612Z,11.40
2023-01-18T11:24:13.843Z,8.87
2023-01-18T11:27:04.408Z,11.70
2023-01-18T11:29:51.994Z,10.77
2023-01-18T11:32:41.740Z,10.45
2023-01-18T11:35:37.426Z,10.55
2023-01-18T11:38:33.744Z,9.45
2023-01-18T11:41:24.824Z,9.20
2023-01-18T11:44:47.807Z,10.60
2023-01-18T11:47:44.110Z,8.85
2023-01-18T11:50:53.074Z,12.57
2023-01-18T11:54:06.937Z,11.05
2023-01-18T11:56:59.687Z,9.48
2023-01-18T11:59:49.175Z,7.22
2023-01-18T12:03:02.070Z,6.53
2023-01-18T12:06:05.211Z,10.88
2023-01-18T12:09:16.842Z,12.43
2023-01-18T12:12:34.067Z,9.43
2023-01-18T12:15:58.276Z,10.75
2023-01-18T12:19:33.820Z,12.00
2023-01-18T12:22:48.903Z,8.30
2023-01-18T12:25:45.466Z,11.25
2023-01-18T12:28:38.594Z,11.48
2023-01-18T12:31:44.347Z,9.52
2023-01-18T12:34:42.069Z,7.70
2023-01-18T12:37:53.913Z,8.63
2023-01-18T12:41:02.002Z,10.77
2023-01-18T12:44:28.856Z,12.70
2023-01-18T12:47:39.675Z,8.80
2023-01-18T12:50:34.081Z,8.05
2023-01-18T12:53:27.868Z,10.73
2023-01-18T12:56:29.702Z,11.18
2023-01-18T12:59:42.494Z,7.28
2023-01-18T13:02:48.122Z,9.75
2023-01-18T13:05:51.401Z,14.13
2023-01-18T13:08:43.727Z,7.63
2023-01-18T13:11:39.084Z,15.55
2023-01-18T13:14:39.288Z,9.77
2023-01-18T13:17:31.259Z,11.18
2023-01-18T13:20:24.130Z,15.98
2023-01-18T13:23:37.868Z,10.25
2023-01-18T13:26:34.492Z,11.90
2023-01-18T13:29:30.734Z,12.57
2023-01-18T13:32:35.691Z,6.10
2023-01-18T13:35:34.245Z,10.82
2023-01-18T13:38:40.314Z,10.35
2023-01-18T13:41:35.648Z,12.15
2023-01-18T13:44:45.995Z,17.50
2023-01-18T13:47:42.002Z,10.07
2023-01-18T13:50:33.039Z,12.07
2023-01-18T13:53:22.538Z,7.90
2023-01-18T13:56:29.919Z,8.32
2023-01-18T13:59:24.523Z,7.60
2023-01-18T14:02:42.798Z,10.98
2023-01-18T14:05:44.312Z,11.52
2023-01-18T14:08:34.459Z,11.15
2023-01-18T14:11:46.297Z,8.35
2023-01-18T14:14:50.265Z,12.25
2023-01-18T14:17:57.818Z,15.23
2023-01-18T14:20:52.073Z,10.40
2023-01-18T14:23:55.308Z,11.25
2023-01-18T14:26:45.458Z,8.38
2023-01-18T14:29:34.386Z,7.97
2023-01-18T14:32:43.981Z,9.05
2023-01-18T14:35:34.610Z,10.57
2023-01-18T14:38:25.256Z,19.10
2023-01-18T14:41:17.427Z,11.10
2023-01-18T14:44:06.400Z,18.00
2023-01-18T14:46:59.789Z,15.02
2023-01-18T14:49:50.515Z,10.88
2023-01-18T14:52:38.621Z,11.30
2023-01-18T14:55:32.507Z,11.73
2023-01-18T14:58:19.900Z,8.40
2023-01-18T15:01:09.476Z,9.90
2023-01-18T15:03:59.751Z,9.10
2023-01-18T15:06:58.705Z,7.38
2023-01-18T15:09:47.383Z,5.85
2023-01-18T15:12:35.783Z,7.38
2023-01-18T15:15:45.562Z,7.30
2023-01-18T15:18:35.183Z,10.98
2023-01-18T15:21:27.241Z,7.47
2023-01-18T15:24:23.300Z,9.35
2023-01-18T15:27:16.513Z,9.82
2023-01-18T15:30:13.112Z,5.57
2023-01-18T15:33:03.571Z,6.65
2023-01-18T15:36:02.016Z,9.75
2023-01-18T15:38:52.183Z,8.57
2023-01-18T15:41:42.439Z,11.15
2023-01-18T15:44:38.989Z,16.10
2023-01-18T15:47:38.281Z,10.30
2023-01-18T15:50:39.334Z,11.52
2023-01-18T15:54:04.384Z,12.77
2023-01-18T15:56:52.263Z,16.95
2023-01-18T15:59:43.705Z,20.02
2023-01-18T16:02:31.626Z,16.25
2023-01-18T16:05:28.711Z,14.85
2023-01-18T16:08:20.714Z,11.77
2023-01-18T16:11:35.299Z,8.52
2023-01-18T16:14:37.981Z,13.20
2023-01-18T16:17:33.386Z,19.30
2023-01-18T16:20:23.622Z,24.65
2023-01-18T16:23:23.190Z,26.60
2023-01-18T16:26:14.358Z,21.92
2023-01-18T16:29:11.930Z,17.52
2023-01-18T16:32:32.419Z,20.38
2023-01-18T16:35:25.212Z,16.98
2023-01-18T16:38:19.674Z,14.55
2023-01-18T16:41:22.854Z,14.13
2023-01-18T16:44:12.079Z,14.60
2023-01-18T16:46:59.426Z,17.98
2023-01-18T16:49:49.242Z,14.00
2023-01-18T16:52:39.052Z,14.90
2023-01-18T16:55:27.219Z,17.75
2023-01-18T16:58:17.045Z,33.17
2023-01-18T17:01:16.400Z,27.52
2023-01-18T17:04:03.885Z,33.25
2023-01-18T17:07:00.225Z,17.50
2023-01-18T17:13:48.206Z,11.82
2023-01-18T17:16:38.525Z,13.50
2023-01-18T17:19:27.184Z,12.50
2023-01-18T17:22:22.279Z,14.43
2023-01-18T17:25:12.802Z,17.10
2023-01-18T17:28:04.266Z,14.13
2023-01-18T17:30:51.943Z,16.88
2023-01-18T17:33:43.935Z,16.40
2023-01-18T17:36:31.419Z,15.00
2023-01-18T17:39:20.259Z,15.63
2023-01-18T17:42:14.235Z,12.65
2023-01-18T17:45:05.676Z,15.65
2023-01-18T17:48:01.398Z,15.98
2023-01-18T17:50:49.172Z,17.25
2023-01-18T17:53:38.398Z,14.55
2023-01-18T17:56:26.480Z,11.38
2023-01-18T17:59:16.207Z,17.45
2023-01-18T18:02:04.620Z,22.60
2023-01-18T18:04:53.958Z,18.70
2023-01-18T18:07:41.402Z,25.20
2023-01-18T18:10:37.934Z,19.05
2023-01-18T18:13:26.537Z,17.15
2023-01-18T18:16:18.838Z,18.75
2023-01-18T18:19:06.457Z,17.15
2023-01-18T18:21:57.597Z,18.65
2023-01-18T18:24:47.480Z,15.13
2023-01-18T18:27:45.313Z,16.60
2023-01-18T18:30:35.845Z,19.63
2023-01-18T18:33:25.733Z,15.70
2023-01-18T18:36:13.375Z,22.60
2023-01-18T18:39:02.520Z,18.55
2023-01-18T18:41:50.085Z,17.23
2023-01-18T18:44:37.667Z,18.77
2023-01-18T18:47:32.708Z,25.27
2023-01-18T18:50:20.336Z,19.63
2023-01-18T18:53:08.068Z,20.80
2023-01-18T18:56:03.967Z,20.92
2023-01-18T18:58:53.418Z,22.05
2023-01-18T19:01:41.169Z,26.02
2023-01-18T19:04:29.008Z,25.60
2023-01-18T19:07:21.052Z,21.25
2023-01-18T19:10:14.776Z,25.42
2023-01-18T19:13:04.963Z,18.83
2023-01-18T19:15:53.000Z,20.50
2023-01-18T19:18:40.606Z,21.67
2023-01-18T19:21:28.029Z,24.98
2023-01-18T19:24:15.901Z,27.75
2023-01-18T19:27:08.436Z,36.00
2023-01-18T19:30:10.596Z,26.30
2023-01-18T19:33:03.246Z,22.70
2023-01-18T19:35:51.843Z,27.65
2023-01-18T19:38:46.730Z,30.42
2023-01-18T19:41:36.611Z,31.77
2023-01-18T19:44:24.510Z,29.20
2023-01-18T19:47:14.797Z,29.35
2023-01-18T19:50:05.683Z,30.30
2023-01-18T19:52:56.480Z,32.03
2023-01-18T19:55:49.213Z,27.98
2023-01-18T19:58:43.168Z,24.05
2023-01-18T20:01:36.910Z,31.23
2023-01-18T20:04:24.985Z,32.53
2023-01-18T20:07:15.026Z,30.13
2023-01-18T20:10:05.286Z,26.90
2023-01-18T20:12:53.140Z,29.10
2023-01-18T20:15:42.444Z,33.08
2023-01-18T20:18:33.867Z,31.35
2023-01-18T20:21:21.629Z,31.35
2023-01-18T20:24:11.563Z,29.10
2023-01-18T20:27:14.896Z,26.75
2023-01-18T20:30:07.066Z,28.13
2023-01-18T20:32:54.785Z,32.15
2023-01-18T20:35:43.210Z,29.88
2023-01-18T20:38:33.905Z,33.85
2023-01-18T20:41:26.613Z,36.60
2023-01-18T20:44:16.528Z,37.75
2023-01-18T20:47:04.601Z,27.65
2023-01-18T20:49:52.214Z,24.70
2023-01-18T20:52:48.735Z,27.23
2023-01-18T20:55:38.274Z,29.42
2023-01-18T20:58:26.179Z,29.20
2023-01-18T21:01:17.026Z,28.80
2023-01-18T21:04:05.738Z,21.98
2023-01-18T21:06:53.567Z,25.02
2023-01-18T21:09:41.293Z,29.65
2023-01-18T21:12:29.207Z,28.00
2023-01-18T21:15:17.002Z,28.88
2023-01-18T21:18:06.127Z,24.60
2023-01-18T21:20:55.176Z,26.50
2023-01-18T21:23:42.706Z,26.83
2023-01-18T21:26:30.645Z,22.70
2023-01-18T21:29:21.626Z,24.02
2023-01-18T21:35:16.689Z,29.63
2023-01-18T21:38:44.749Z,32.08
2023-01-18T21:45:20.640Z,28.13
2023-01-18T21:48:42.677Z,27.52
2023-01-18T21:58:11.097Z,35.10
2023-01-18T22:01:00.709Z,31.58
2023-01-18T22:04:08.340Z,33.53
2023-01-18T22:06:57.836Z,34.05
2023-01-18T22:09:52.392Z,39.58
2023-01-18T22:12:54.057Z,34.13
2023-01-18T22:15:41.471Z,31.63
2023-01-18T22:18:28.587Z,31.98
2023-01-18T22:21:16.474Z,45.30
2023-01-18T22:24:03.970Z,40.15
2023-01-18T22:26:52.706Z,43.70
2023-01-18T22:29:40.430Z,43.67
2023-01-18T22:32:27.999Z,39.85
2023-01-18T22:35:15.356Z,41.65
2023-01-18T22:38:06.011Z,40.75
2023-01-18T22:41:08.914Z,45.08
2023-01-18T22:47:52.368Z,40.90
2023-01-18T22:50:40.780Z,40.90
2023-01-18T22:53:31.363Z,44.33
2023-01-18T22:56:21.298Z,39.83
2023-01-18T22:59:09.176Z,40.45
2023-01-18T23:01:56.910Z,43.70
2023-01-18T23:04:44.059Z,38.03
2023-01-18T23:07:31.387Z,51.63
2023-01-18T23:10:18.790Z,45.47
2023-01-18T23:13:09.056Z,43.60
2023-01-18T23:16:14.688Z,57.60
2023-01-18T23:19:01.822Z,44.70
2023-01-18T23:21:51.272Z,47.00
2023-01-18T23:24:46.266Z,52.83
2023-01-18T23:27:36.539Z,41.63
2023-01-18T23:30:28.381Z,45.80
2023-01-18T23:33:15.490Z,39.55
2023-01-18T23:36:03.130Z,39.03
2023-01-18T23:39:11.149Z,42.83
2023-01-18T23:42:16.912Z,41.22
2023-01-18T23:45:26.460Z,39.22
2023-01-18T23:48:34.792Z,40.78
2023-01-18T23:51:40.423Z,44.08
2023-01-18T23:54:31.508Z,39.05
2023-01-18T23:57:21.382Z,40.47
